Time;durP1;ratioP1;P1;durP2;ratioP2;P2;SDS_P1;SDS_P2;PMS_P1;PMS_P2;Temp;Humidity;BMP_temperature;BMP_pressure;BME280_temperature;BME280_humidity;BME280_pressure;Samples;Min_cycle;Max_cycle;Signal;HPM_P1;HPM_P2
2022/07/29 00:01:19;;;;;;;5.00;2.55;;;;;;;-148.56;100.00;61375.16;4948723;28;20034;-28
2022/07/29 00:03:44;;;;;;;5.32;3.00;;;;;;;-148.56;100.00;61375.16;4950541;28;20676;-31
2022/07/29 00:06:10;;;;;;;4.25;2.50;;;;;;;-148.56;100.00;61375.16;4955993;28;20266;-29
2022/07/29 00:08:35;;;;;;;4.57;2.40;;;;;;;-148.56;100.00;61375.16;4955944;28;20671;-26
2022/07/29 00:11:01;;;;;;;5.97;2.58;;;;;;;-148.56;100.00;61375.16;4964480;28;20033;-27
2022/07/29 00:13:26;;;;;;;2.58;2.22;;;;;;;-148.56;100.00;61375.16;4966710;28;20341;-27
2022/07/29 00:15:51;;;;;;;4.57;2.50;;;;;;;-148.56;100.00;61375.16;4961042;28;20766;-30
2022/07/29 00:18:17;;;;;;;3.75;2.45;;;;;;;-148.56;100.00;61375.16;4961294;28;20029;-25
2022/07/29 00:20:42;;;;;;;5.38;2.35;;;;;;;-148.56;100.00;61375.16;4961044;28;21391;-27
2022/07/29 00:23:08;;;;;;;2.92;2.55;;;;;;;-148.56;100.00;61375.16;4963690;28;20038;-28
2022/07/29 00:25:33;;;;;;;3.53;2.40;;;;;;;-148.56;100.00;61375.16;4960874;28;20026;-31
2022/07/29 00:27:58;;;;;;;4.30;2.53;;;;;;;-148.56;100.00;61375.16;4962669;28;20084;-32
2022/07/29 00:30:24;;;;;;;3.88;2.38;;;;;;;-148.56;100.00;61375.16;4958575;28;20706;-27
2022/07/29 00:32:49;;;;;;;3.63;2.10;;;;;;;-148.56;100.00;61375.16;4956346;28;20036;-23
2022/07/29 00:37:58;;;;;;;4.43;2.70;;;;;;;-148.56;100.00;61375.16;4960314;28;20196;-30
2022/07/29 00:40:24;;;;;;;3.90;2.15;;;;;;;-148.56;100.00;61375.16;4957760;28;20506;-28
2022/07/29 00:42:50;;;;;;;4.35;2.10;;;;;;;-148.56;100.00;61375.16;4959970;28;20084;-29
2022/07/29 00:45:16;;;;;;;3.53;2.13;;;;;;;-148.56;100.00;61375.16;4962929;28;20781;-25
2022/07/29 00:47:41;;;;;;;2.83;2.10;;;;;;;-148.56;100.00;61375.16;4963098;28;20038;-26
2022/07/29 00:50:08;;;;;;;3.40;2.40;;;;;;;-148.56;100.00;61375.16;4964605;28;20030;-31
2022/07/29 00:52:34;;;;;;;2.83;2.35;;;;;;;-148.56;100.00;61375.16;4957022;28;20140;-31
2022/07/29 00:55:00;;;;;;;4.30;2.30;;;;;;;-148.56;100.00;61375.16;4956176;28;20033;-29
2022/07/29 00:57:25;;;;;;;3.58;2.30;;;;;;;-148.56;100.00;61375.16;4962670;28;20025;-27
2022/07/29 00:59:51;;;;;;;3.95;2.35;;;;;;;-148.56;100.00;61375.16;4961745;28;22339;-27
2022/07/29 01:02:16;;;;;;;4.13;2.10;;;;;;;-148.56;100.00;61375.16;4956586;28;20084;-28
2022/07/29 01:04:41;;;;;;;4.68;2.60;;;;;;;-148.56;100.00;61375.16;4954515;28;20041;-22
2022/07/29 01:07:07;;;;;;;4.28;2.20;;;;;;;-148.56;100.00;61375.16;4947919;28;20038;-29
2022/07/29 01:09:32;;;;;;;5.18;2.42;;;;;;;-148.56;100.00;61375.16;4956717;28;20030;-31
2022/07/29 01:11:58;;;;;;;4.28;2.40;;;;;;;-148.56;100.00;61375.16;4955631;28;20888;-27
2022/07/29 01:14:23;;;;;;;4.25;2.50;;;;;;;-148.56;100.00;61375.16;4960006;28;20060;-29
2022/07/29 01:16:55;;;;;;;5.53;2.65;;;;;;;-148.56;100.00;61375.16;4962367;28;22320;-25
2022/07/29 01:19:39;;;;;;;2.63;2.33;;;;;;;-148.56;100.00;61375.16;4989486;28;20042;-26
2022/07/29 01:22:33;;;;;;;4.63;2.42;;;;;;;-148.56;100.00;61375.16;4959610;28;20034;-27
2022/07/29 01:25:21;;;;;;;2.28;2.00;;;;;;;-148.56;100.00;61375.16;4960119;28;20420;-28
2022/07/29 01:28:03;;;;;;;4.70;2.47;;;;;;;-148.56;100.00;61375.16;4962268;28;20030;-32
2022/07/29 01:30:29;;;;;;;4.40;2.60;;;;;;;-148.56;100.00;61375.16;4947888;28;20041;-26
2022/07/29 01:32:56;;;;;;;2.97;2.17;;;;;;;-148.56;100.00;61375.16;4961267;28;20025;-28
2022/07/29 01:35:36;;;;;;;4.00;2.42;;;;;;;-148.56;100.00;61375.16;4964212;28;20889;-28
2022/07/29 01:38:10;;;;;;;6.97;2.88;;;;;;;-148.56;100.00;61375.16;4943129;28;20033;-27
2022/07/29 01:40:47;;;;;;;4.50;2.60;;;;;;;-148.56;100.00;61375.16;4965586;28;20026;-30
2022/07/29 01:43:15;;;;;;;4.97;2.80;;;;;;;-148.56;100.00;61375.16;4963938;28;20103;-26
2022/07/29 01:45:43;;;;;;;4.07;2.50;;;;;;;-148.56;100.00;61375.16;4964837;28;20025;-26
2022/07/29 01:48:27;;;;;;;6.10;2.70;;;;;;;-148.56;100.00;61375.16;4964499;28;20067;-26
2022/07/29 01:51:03;;;;;;;3.65;2.50;;;;;;;-148.56;100.00;61375.16;4965592;28;20036;-29
2022/07/29 01:53:34;;;;;;;5.22;2.50;;;;;;;-148.56;100.00;61375.16;4949070;28;20036;-27
2022/07/29 01:56:00;;;;;;;4.85;2.63;;;;;;;-148.56;100.00;61375.16;4947366;28;20088;-25
2022/07/29 01:58:25;;;;;;;5.88;2.90;;;;;;;-148.56;100.00;61375.16;4977009;28;20693;-31
2022/07/29 02:00:50;;;;;;;3.72;2.40;;;;;;;-148.56;100.00;61375.16;4962604;28;20307;-29
2022/07/29 02:03:16;;;;;;;4.72;2.60;;;;;;;-148.56;100.00;61375.16;4961888;28;20854;-26
2022/07/29 02:05:42;;;;;;;3.33;2.72;;;;;;;-148.56;100.00;61375.16;4944834;28;20053;-24
2022/07/29 02:08:07;;;;;;;8.38;2.80;;;;;;;-148.56;100.00;61375.16;4952622;28;20041;-27
2022/07/29 02:10:33;;;;;;;3.15;2.38;;;;;;;-148.56;100.00;61375.16;4962563;28;20426;-29
2022/07/29 02:12:58;;;;;;;3.83;2.63;;;;;;;-148.56;100.00;61375.16;4962058;28;20042;-30
2022/07/29 02:15:24;;;;;;;3.35;2.35;;;;;;;-148.56;100.00;61375.16;4964408;28;20282;-28
2022/07/29 02:18:00;;;;;;;3.45;2.30;;;;;;;-148.56;100.00;61375.16;4962060;28;20030;-26
2022/07/29 02:20:25;;;;;;;5.47;2.97;;;;;;;-148.56;100.00;61375.16;4959923;28;20106;-29
2022/07/29 02:22:51;;;;;;;5.00;2.53;;;;;;;-148.56;100.00;61375.16;4960900;28;20651;-25
2022/07/29 02:25:16;;;;;;;3.67;2.38;;;;;;;-148.56;100.00;61375.16;4958150;28;20026;-29
2022/07/29 02:27:42;;;;;;;3.17;2.28;;;;;;;-148.56;100.00;61375.16;4959906;28;20152;-25
2022/07/29 02:30:08;;;;;;;3.85;2.33;;;;;;;-148.56;100.00;61375.16;4970583;28;20029;-29
2022/07/29 02:32:34;;;;;;;2.75;2.20;;;;;;;-148.56;100.00;61375.16;4946348;28;20033;-30
2022/07/29 02:35:00;;;;;;;5.28;2.40;;;;;;;-148.56;100.00;61375.16;4963594;28;20172;-28
2022/07/29 02:37:25;;;;;;;4.88;2.70;;;;;;;-148.56;100.00;61375.16;4958217;28;20984;-28
2022/07/29 02:39:52;;;;;;;3.92;2.58;;;;;;;-148.56;100.00;61375.16;4957650;28;20034;-30
2022/07/29 02:42:17;;;;;;;4.28;2.47;;;;;;;-148.56;100.00;61375.16;4981609;28;20497;-27
2022/07/29 02:44:43;;;;;;;4.00;2.75;;;;;;;-148.56;100.00;61375.16;4957529;28;20034;-28
2022/07/29 02:47:28;;;;;;;2.78;2.42;;;;;;;-148.56;100.00;61375.16;4961167;28;20029;-28
2022/07/29 02:50:08;;;;;;;5.20;2.63;;;;;;;-148.56;100.00;61375.16;4957490;28;20042;-28
2022/07/29 02:52:42;;;;;;;4.95;2.60;;;;;;;-148.56;100.00;61375.16;4963001;28;20029;-33
2022/07/29 02:55:15;;;;;;;3.95;2.30;;;;;;;-148.56;100.00;61375.16;4953563;28;20979;-29
2022/07/29 02:57:53;;;;;;;3.90;2.42;;;;;;;-148.56;100.00;61375.16;4959043;28;20147;-29
2022/07/29 03:00:19;;;;;;;3.97;2.63;;;;;;;-148.56;100.00;61375.16;4957328;28;20191;-27
2022/07/29 03:02:45;;;;;;;4.25;2.58;;;;;;;-148.56;100.00;61375.16;4957405;28;21333;-28
2022/07/29 03:05:16;;;;;;;4.43;2.50;;;;;;;-148.56;100.00;61375.16;4965952;28;20689;-28
2022/07/29 03:07:41;;;;;;;5.28;2.40;;;;;;;-148.56;100.00;61375.16;4961089;28;20925;-28
2022/07/29 03:10:08;;;;;;;5.93;2.50;;;;;;;-148.56;100.00;61375.16;4960864;28;22424;-28
2022/07/29 03:12:33;;;;;;;5.82;2.53;;;;;;;-148.56;100.00;61375.16;4957683;28;20039;-28
2022/07/29 03:14:59;;;;;;;2.55;2.10;;;;;;;-148.56;100.00;61375.16;4964201;28;20096;-28
2022/07/29 03:17:24;;;;;;;5.80;2.38;;;;;;;-148.56;100.00;61375.16;4960579;28;20271;-32
2022/07/29 03:19:49;;;;;;;4.30;2.40;;;;;;;-148.56;100.00;61375.16;4960409;28;20040;-29
2022/07/29 03:22:15;;;;;;;3.67;2.17;;;;;;;-148.56;100.00;61375.16;4969613;28;20029;-26
2022/07/29 03:24:40;;;;;;;3.85;2.53;;;;;;;-148.56;100.00;61375.16;4963494;28;20527;-29
2022/07/29 03:27:06;;;;;;;6.75;2.50;;;;;;;-148.56;100.00;61375.16;4960007;28;20033;-27
2022/07/29 03:29:31;;;;;;;3.08;2.25;;;;;;;-148.56;100.00;61375.16;4959479;28;20267;-28
2022/07/29 03:31:57;;;;;;;2.88;2.20;;;;;;;-148.56;100.00;61375.16;4961261;28;20041;-30
2022/07/29 03:34:22;;;;;;;4.43;2.40;;;;;;;-148.56;100.00;61375.16;4964015;28;20030;-26
2022/07/29 03:36:48;;;;;;;4.03;2.28;;;;;;;-148.56;100.00;61375.16;4959673;28;20041;-27
2022/07/29 03:39:16;;;;;;;5.60;2.60;;;;;;;-148.56;100.00;61375.16;4972690;28;20037;-27
2022/07/29 03:41:41;;;;;;;3.08;2.20;;;;;;;-148.56;100.00;61375.16;4943447;28;21852;-27
2022/07/29 03:44:07;;;;;;;3.47;2.30;;;;;;;-148.56;100.00;61375.16;4960776;28;20042;-29
2022/07/29 03:46:32;;;;;;;3.92;2.45;;;;;;;-148.56;100.00;61375.16;4953003;28;20033;-27
2022/07/29 03:48:59;;;;;;;3.75;2.30;;;;;;;-148.56;100.00;61375.16;4925393;28;20302;-29
2022/07/29 03:51:25;;;;;;;3.67;2.40;;;;;;;-148.56;100.00;61375.16;4959285;28;20449;-28
2022/07/29 03:53:51;;;;;;;2.90;2.30;;;;;;;-148.56;100.00;61375.16;4945809;28;20971;-30
2022/07/29 03:56:16;;;;;;;5.50;2.50;;;;;;;-148.56;100.00;61375.16;4958495;28;20221;-29
2022/07/29 03:58:41;;;;;;;3.03;2.20;;;;;;;-148.56;100.00;61375.16;4940231;28;20045;-28
2022/07/29 04:01:07;;;;;;;3.65;2.20;;;;;;;-148.56;100.00;61375.16;4955137;28;20022;-28
2022/07/29 04:03:33;;;;;;;2.85;2.20;;;;;;;-148.56;100.00;61375.16;4956597;28;20581;-29
2022/07/29 04:06:00;;;;;;;3.25;2.20;;;;;;;-148.56;100.00;61375.16;4951573;28;20048;-29
2022/07/29 04:08:25;;;;;;;5.35;2.40;;;;;;;-148.56;100.00;61375.16;4958826;28;22281;-31
2022/07/29 04:10:52;;;;;;;3.50;2.80;;;;;;;-148.56;100.00;61375.16;4957568;28;22280;-29
2022/07/29 04:13:18;;;;;;;4.60;2.55;;;;;;;-148.56;100.00;61375.16;4961438;28;20038;-28
2022/07/29 04:15:43;;;;;;;3.85;2.70;;;;;;;-148.56;100.00;61375.16;4959715;28;20034;-25
2022/07/29 04:18:09;;;;;;;4.05;2.35;;;;;;;-148.56;100.00;61375.16;4958782;28;20037;-26
2022/07/29 04:20:35;;;;;;;3.47;2.22;;;;;;;-148.56;100.00;61375.16;4960762;28;20029;-29
2022/07/29 04:23:00;;;;;;;3.40;2.15;;;;;;;-148.56;100.00;61375.16;4964931;28;20045;-25
2022/07/29 04:25:25;;;;;;;2.50;2.20;;;;;;;-148.56;100.00;61375.16;4965953;28;20657;-29
2022/07/29 04:28:03;;;;;;;5.10;2.53;;;;;;;-148.56;100.00;61375.16;4963297;28;20033;-29
2022/07/29 04:30:29;;;;;;;3.42;2.20;;;;;;;-148.56;100.00;61375.16;4959655;28;20037;-28
2022/07/29 04:32:54;;;;;;;3.35;2.47;;;;;;;-148.56;100.00;61375.16;4962673;28;20029;-28
2022/07/29 04:35:20;;;;;;;3.15;2.17;;;;;;;-148.56;100.00;61375.16;4963289;28;20042;-31
2022/07/29 04:37:45;;;;;;;4.50;2.10;;;;;;;-148.56;100.00;61375.16;4958888;28;20030;-27
2022/07/29 04:40:11;;;;;;;4.30;2.25;;;;;;;-148.56;100.00;61375.16;4958700;28;20141;-27
2022/07/29 04:42:37;;;;;;;3.75;2.40;;;;;;;-148.56;100.00;61375.16;4962801;28;20807;-26
2022/07/29 04:45:03;;;;;;;3.13;2.40;;;;;;;-148.56;100.00;61375.16;4962471;28;20034;-29
2022/07/29 04:47:28;;;;;;;3.40;2.28;;;;;;;-148.56;100.00;61375.16;4964148;28;20065;-27
2022/07/29 04:49:54;;;;;;;3.88;2.50;;;;;;;-148.56;100.00;61375.16;4961457;28;20933;-26
2022/07/29 04:52:19;;;;;;;4.72;2.55;;;;;;;-148.56;100.00;61375.16;4954546;28;20437;-25
2022/07/29 04:54:44;;;;;;;4.70;2.55;;;;;;;-148.56;100.00;61375.16;4953998;28;20033;-27
2022/07/29 04:57:10;;;;;;;2.90;2.10;;;;;;;-148.56;100.00;61375.16;4961003;28;20030;-25
2022/07/29 04:59:35;;;;;;;3.08;2.60;;;;;;;-148.56;100.00;61375.16;4963878;28;20699;-30
2022/07/29 05:02:01;;;;;;;3.67;2.40;;;;;;;-148.56;100.00;61375.16;4964474;28;20069;-26
2022/07/29 05:04:26;;;;;;;3.35;2.40;;;;;;;-148.56;100.00;61375.16;4965195;28;20025;-27
2022/07/29 05:06:51;;;;;;;4.20;2.33;;;;;;;-148.56;100.00;61375.16;4967200;28;20080;-27
2022/07/29 05:09:17;;;;;;;4.68;2.20;;;;;;;-148.56;100.00;61375.16;4965172;28;20064;-28
2022/07/29 05:11:42;;;;;;;5.15;2.60;;;;;;;-148.56;100.00;61375.16;4968232;28;20034;-28
2022/07/29 05:14:08;;;;;;;3.03;2.30;;;;;;;-148.56;100.00;61375.16;4963075;28;20276;-30
2022/07/29 05:16:33;;;;;;;3.35;2.60;;;;;;;-148.56;100.00;61375.16;4964143;28;20992;-25
2022/07/29 05:18:58;;;;;;;2.95;2.30;;;;;;;-148.56;100.00;61375.16;4964421;28;20049;-30
2022/07/29 05:21:24;;;;;;;4.43;2.25;;;;;;;-148.56;100.00;61375.16;4964329;28;20694;-28
2022/07/29 05:23:50;;;;;;;3.00;2.25;;;;;;;-148.56;100.00;61375.16;4966764;28;20037;-31
2022/07/29 05:26:15;;;;;;;4.22;2.20;;;;;;;-148.56;100.00;61375.16;4970039;28;20517;-27
2022/07/29 05:28:40;;;;;;;3.13;2.20;;;;;;;-148.56;100.00;61375.16;4972140;28;20033;-28
2022/07/29 05:31:06;;;;;;;5.65;2.20;;;;;;;-148.56;100.00;61375.16;4966212;28;20041;-28
2022/07/29 05:33:31;;;;;;;3.25;2.00;;;;;;;-148.56;100.00;61375.16;4965462;28;20037;-27
2022/07/29 05:35:57;;;;;;;5.68;2.40;;;;;;;-148.56;100.00;61375.16;4968392;28;20487;-29
2022/07/29 05:38:22;;;;;;;4.40;2.20;;;;;;;-148.56;100.00;61375.16;4962825;28;20033;-30
2022/07/29 05:40:48;;;;;;;3.00;2.28;;;;;;;-148.56;100.00;61375.16;4965132;28;20413;-28
2022/07/29 05:43:13;;;;;;;2.97;2.13;;;;;;;-148.56;100.00;61375.16;4968047;28;20017;-31
2022/07/29 05:45:38;;;;;;;6.28;2.28;;;;;;;-148.56;100.00;61375.16;4965215;28;20384;-31
2022/07/29 05:48:04;;;;;;;3.60;2.33;;;;;;;-148.56;100.00;61375.16;4964377;28;20038;-26
2022/07/29 05:50:29;;;;;;;4.00;2.17;;;;;;;-148.56;100.00;61375.16;4961860;28;20473;-27
2022/07/29 05:52:55;;;;;;;4.85;2.40;;;;;;;-148.56;100.00;61375.16;4961368;28;20026;-28
2022/07/29 05:55:20;;;;;;;3.42;2.15;;;;;;;-148.56;100.00;61375.16;4964956;28;20037;-28
2022/07/29 05:57:45;;;;;;;3.33;2.13;;;;;;;-148.56;100.00;61375.16;4963541;28;20037;-28
2022/07/29 06:00:11;;;;;;;3.67;2.50;;;;;;;-148.56;100.00;61375.16;4965241;28;21470;-26
2022/07/29 06:02:37;;;;;;;2.28;1.85;;;;;;;-148.56;100.00;61375.16;4965756;28;20069;-29
2022/07/29 06:05:02;;;;;;;3.03;2.20;;;;;;;-148.56;100.00;61375.16;4963092;28;20606;-28
2022/07/29 06:07:28;;;;;;;4.97;2.40;;;;;;;-148.56;100.00;61375.16;4962599;28;20768;-27
2022/07/29 06:09:53;;;;;;;4.10;2.60;;;;;;;-148.56;100.00;61375.16;4958897;28;20037;-24
2022/07/29 06:12:19;;;;;;;4.50;2.55;;;;;;;-148.56;100.00;61375.16;4965668;28;20029;-29
2022/07/29 06:14:45;;;;;;;3.33;2.17;;;;;;;-148.56;100.00;61375.16;4968483;28;20038;-29
2022/07/29 06:17:11;;;;;;;3.35;2.30;;;;;;;-148.56;100.00;61375.16;4964419;28;20152;-27
2022/07/29 06:19:37;;;;;;;4.43;2.40;;;;;;;-148.56;100.00;61375.16;4958354;28;20712;-30
2022/07/29 06:22:03;;;;;;;6.82;2.70;;;;;;;-148.56;100.00;61375.16;4959336;28;20038;-28
2022/07/29 06:24:28;;;;;;;5.85;2.22;;;;;;;-148.56;100.00;61375.16;4964173;28;20037;-30
2022/07/29 06:26:54;;;;;;;3.20;2.20;;;;;;;-148.56;100.00;61375.16;4963468;28;20065;-30
2022/07/29 06:29:19;;;;;;;8.52;2.50;;;;;;;-148.56;100.00;61375.16;4964534;28;20033;-25
2022/07/29 06:31:44;;;;;;;6.75;2.40;;;;;;;-148.56;100.00;61375.16;4961223;28;20053;-27
2022/07/29 06:34:10;;;;;;;3.33;2.20;;;;;;;-148.56;100.00;61375.16;4960817;28;20669;-27
2022/07/29 06:36:36;;;;;;;5.20;2.47;;;;;;;-148.56;100.00;61375.16;4963023;28;20072;-29
2022/07/29 06:39:04;;;;;;;4.97;2.60;;;;;;;-148.56;100.00;61375.16;4962941;28;20092;-29
2022/07/29 06:41:30;;;;;;;5.05;2.50;;;;;;;-148.56;100.00;61375.16;4960069;28;20136;-29
2022/07/29 06:43:56;;;;;;;5.88;2.60;;;;;;;-148.56;100.00;61375.16;4959770;28;20601;-26
2022/07/29 06:46:21;;;;;;;15.52;3.17;;;;;;;-148.56;100.00;61375.16;4958356;28;20038;-25
2022/07/29 06:48:49;;;;;;;11.38;3.22;;;;;;;-148.56;100.00;61375.16;4965233;28;20176;-31
2022/07/29 06:51:16;;;;;;;13.50;3.88;;;;;;;-148.56;100.00;61375.16;4950110;28;20025;-30
2022/07/29 06:53:41;;;;;;;10.00;3.50;;;;;;;-148.56;100.00;61375.16;4956607;28;20053;-31
2022/07/29 06:56:08;;;;;;;17.67;4.72;;;;;;;-148.56;100.00;61375.16;4966050;28;20042;-25
2022/07/29 06:58:34;;;;;;;12.35;4.15;;;;;;;-148.56;100.00;61375.16;4961884;28;20204;-29
2022/07/29 07:01:01;;;;;;;11.68;3.78;;;;;;;-148.56;100.00;61375.16;4964557;28;20083;-27
2022/07/29 07:03:26;;;;;;;20.13;4.28;;;;;;;-148.56;100.00;61375.16;4956556;28;20030;-27
2022/07/29 07:05:53;;;;;;;12.93;3.78;;;;;;;-148.56;100.00;61375.16;4952168;28;20072;-26
2022/07/29 07:08:19;;;;;;;10.15;3.83;;;;;;;-148.56;100.00;61375.16;4952171;28;20025;-28
2022/07/29 07:10:44;;;;;;;11.50;3.92;;;;;;;-148.56;100.00;61375.16;4953609;28;20038;-29
2022/07/29 07:13:10;;;;;;;10.35;3.47;;;;;;;-148.56;100.00;61375.16;4957534;28;20026;-27
2022/07/29 07:15:36;;;;;;;9.48;3.92;;;;;;;-148.56;100.00;61375.16;4959489;28;20076;-31
2022/07/29 07:18:01;;;;;;;9.85;3.75;;;;;;;-148.56;100.00;61375.16;4957922;28;20165;-29
2022/07/29 07:20:27;;;;;;;13.82;3.80;;;;;;;-148.56;100.00;61375.16;4950423;28;20706;-30
2022/07/29 07:22:52;;;;;;;11.00;4.07;;;;;;;-148.56;100.00;61375.16;4957513;28;20734;-26
2022/07/29 07:25:17;;;;;;;7.30;3.75;;;;;;;-148.56;100.00;61375.16;4952649;28;20501;-30
2022/07/29 07:27:44;;;;;;;9.10;3.45;;;;;;;-148.56;100.00;61375.16;4955369;28;20057;-31
2022/07/29 07:30:09;;;;;;;11.68;3.90;;;;;;;-148.56;100.00;61375.16;4952888;28;20037;-27
2022/07/29 07:32:35;;;;;;;16.40;3.60;;;;;;;-148.56;100.00;61375.16;4943285;28;20021;-30
2022/07/29 07:35:00;;;;;;;9.95;3.70;;;;;;;-148.56;100.00;61375.16;4954000;28;20026;-27
2022/07/29 07:37:26;;;;;;;12.50;3.60;;;;;;;-148.56;100.00;61375.16;4947413;28;20425;-26
2022/07/29 07:39:52;;;;;;;13.38;3.75;;;;;;;-148.56;100.00;61375.16;4945948;28;20117;-28
2022/07/29 07:42:17;;;;;;;6.88;3.15;;;;;;;-148.56;100.00;61375.16;4954687;28;23312;-23
2022/07/29 07:44:43;;;;;;;7.78;3.60;;;;;;;-148.56;100.00;61375.16;4947743;28;21074;-26
2022/07/29 07:47:08;;;;;;;7.60;3.30;;;;;;;-148.56;100.00;61375.16;4953222;28;20694;-29
2022/07/29 07:49:34;;;;;;;5.18;3.38;;;;;;;-148.56;100.00;61375.16;4941783;28;20416;-28
2022/07/29 07:51:59;;;;;;;11.40;3.40;;;;;;;-148.56;100.00;61375.16;4941661;28;20025;-25
2022/07/29 07:54:25;;;;;;;7.57;3.13;;;;;;;-148.56;100.00;61375.16;4956353;28;20052;-26
2022/07/29 07:56:50;;;;;;;6.72;3.13;;;;;;;-148.56;100.00;61375.16;4955341;28;20130;-25
2022/07/29 07:59:16;;;;;;;5.57;2.80;;;;;;;-148.56;100.00;61375.16;4954061;28;20050;-27
2022/07/29 08:01:42;;;;;;;7.03;3.20;;;;;;;-148.56;100.00;61375.16;4954280;28;20705;-24
2022/07/29 08:04:07;;;;;;;5.47;3.00;;;;;;;-148.56;100.00;61375.16;4951694;28;20822;-27
2022/07/29 08:06:34;;;;;;;10.82;3.50;;;;;;;-148.56;100.00;61375.16;4958585;28;20053;-28
2022/07/29 08:09:00;;;;;;;6.88;3.05;;;;;;;-148.56;100.00;61375.16;4937826;28;20077;-26
2022/07/29 08:11:25;;;;;;;8.32;3.38;;;;;;;-148.56;100.00;61375.16;4945739;28;21039;-30
2022/07/29 08:13:51;;;;;;;6.50;3.20;;;;;;;-148.56;100.00;61375.16;4948233;28;20034;-27
2022/07/29 08:16:17;;;;;;;4.25;2.95;;;;;;;-148.56;100.00;61375.16;4945209;28;21282;-30
2022/07/29 08:18:43;;;;;;;6.10;3.55;;;;;;;-148.56;100.00;61375.16;4942443;28;20049;-27
2022/07/29 08:21:09;;;;;;;7.75;3.08;;;;;;;-148.56;100.00;61375.16;4947803;28;20246;-27
2022/07/29 08:23:45;;;;;;;5.70;3.10;;;;;;;-148.56;100.00;61375.16;4947179;28;20728;-30
2022/07/29 08:26:11;;;;;;;9.63;3.35;;;;;;;-148.56;100.00;61375.16;4952558;28;20092;-29
2022/07/29 08:28:37;;;;;;;5.53;3.00;;;;;;;-148.56;100.00;61375.16;4953621;28;21676;-30
2022/07/29 08:31:03;;;;;;;5.28;3.00;;;;;;;-148.56;100.00;61375.16;4935882;28;20038;-32
2022/07/29 08:33:28;;;;;;;8.07;3.50;;;;;;;-148.56;100.00;61375.16;4949824;28;20765;-28
2022/07/29 08:35:54;;;;;;;7.75;3.83;;;;;;;-148.56;100.00;61375.16;4935408;28;20053;-29
2022/07/29 08:38:19;;;;;;;8.63;3.25;;;;;;;-148.56;100.00;61375.16;4942675;28;20029;-25
2022/07/29 08:40:45;;;;;;;9.48;3.80;;;;;;;-148.56;100.00;61375.16;4934853;28;20219;-27
2022/07/29 08:43:11;;;;;;;11.88;3.50;;;;;;;-148.56;100.00;61375.16;4950043;28;20068;-29
2022/07/29 08:45:41;;;;;;;9.38;3.38;;;;;;;-148.56;100.00;61375.16;4948140;28;20034;-30
2022/07/29 08:48:07;;;;;;;9.55;3.50;;;;;;;-148.56;100.00;61375.16;4945116;28;20248;-29
2022/07/29 08:50:35;;;;;;;9.23;3.83;;;;;;;-148.56;100.00;61375.16;4941743;28;20872;-32
2022/07/29 08:53:00;;;;;;;7.70;3.65;;;;;;;-148.56;100.00;61375.16;4938942;28;20252;-27
2022/07/29 08:55:26;;;;;;;7.78;3.42;;;;;;;-148.56;100.00;61375.16;4959331;28;20767;-30
2022/07/29 08:57:51;;;;;;;18.73;3.47;;;;;;;-148.56;100.00;61375.16;4946485;28;20473;-30
2022/07/29 09:00:17;;;;;;;14.60;4.07;;;;;;;-148.56;100.00;61375.16;4956535;28;22358;-32
2022/07/29 09:02:44;;;;;;;9.43;3.40;;;;;;;-148.56;100.00;61375.16;4932883;28;20064;-26
2022/07/29 09:05:10;;;;;;;10.82;3.63;;;;;;;-148.56;100.00;61375.16;4946280;28;20030;-30
2022/07/29 09:07:35;;;;;;;7.65;3.40;;;;;;;-148.56;100.00;61375.16;4947462;28;20793;-29
2022/07/29 09:10:01;;;;;;;5.68;3.42;;;;;;;-148.56;100.00;61375.16;4943221;28;20049;-26
2022/07/29 09:12:26;;;;;;;8.10;3.47;;;;;;;-148.56;100.00;61375.16;4945146;28;20169;-26
2022/07/29 09:14:52;;;;;;;9.60;3.40;;;;;;;-148.56;100.00;61375.16;4944335;28;20037;-25
2022/07/29 09:17:17;;;;;;;8.73;3.20;;;;;;;-148.56;100.00;61375.16;4943483;28;21074;-26
2022/07/29 09:19:43;;;;;;;7.70;3.22;;;;;;;-148.56;100.00;61375.16;4941058;28;20389;-27
2022/07/29 09:22:09;;;;;;;10.43;3.60;;;;;;;-148.56;100.00;61375.16;4945038;28;21834;-25
2022/07/29 09:24:46;;;;;;;7.07;3.63;;;;;;;-148.56;100.00;61375.16;4951458;28;20030;-27
2022/07/29 09:27:21;;;;;;;5.85;3.50;;;;;;;-148.56;100.00;61375.16;4944437;28;20030;-28
2022/07/29 09:29:46;;;;;;;11.15;3.58;;;;;;;-148.56;100.00;61375.16;4935453;28;20144;-26
2022/07/29 09:32:12;;;;;;;8.65;3.35;;;;;;;-148.56;100.00;61375.16;4943171;28;20312;-26
2022/07/29 09:34:37;;;;;;;6.45;3.35;;;;;;;-148.56;100.00;61375.16;4952024;28;20745;-31
2022/07/29 09:37:03;;;;;;;6.95;3.63;;;;;;;-148.56;100.00;61375.16;4954486;28;20127;-28
2022/07/29 09:39:30;;;;;;;12.60;3.60;;;;;;;-148.56;100.00;61375.16;4935718;28;20801;-28
2022/07/29 09:41:57;;;;;;;11.27;3.58;;;;;;;-148.56;100.00;61375.16;4948189;28;21036;-25
2022/07/29 09:44:22;;;;;;;12.52;3.47;;;;;;;-148.56;100.00;61375.16;4957744;28;20882;-27
2022/07/29 09:46:56;;;;;;;22.17;3.75;;;;;;;-148.56;100.00;61375.16;4962010;28;20029;-29
2022/07/29 09:49:21;;;;;;;16.73;4.18;;;;;;;-148.56;100.00;61375.16;4964137;28;20026;-29
2022/07/29 09:51:47;;;;;;;18.65;4.18;;;;;;;-148.56;100.00;61375.16;4961999;28;20040;-27
2022/07/29 09:54:26;;;;;;;26.15;4.45;;;;;;;-148.56;100.00;61375.16;4961364;28;20725;-28
2022/07/29 09:56:51;;;;;;;32.80;4.85;;;;;;;-148.56;100.00;61375.16;4964441;28;20033;-30
2022/07/29 09:59:17;;;;;;;17.90;4.90;;;;;;;-148.56;100.00;61375.16;4960354;28;20353;-27
2022/07/29 10:01:42;;;;;;;15.02;4.50;;;;;;;-148.56;100.00;61375.16;4960960;28;20033;-27
2022/07/29 10:04:08;;;;;;;12.35;4.85;;;;;;;-148.56;100.00;61375.16;4967676;28;20508;-30
2022/07/29 10:06:33;;;;;;;17.85;4.40;;;;;;;-148.56;100.00;61375.16;4961994;28;20037;-29
2022/07/29 10:09:09;;;;;;;11.80;4.10;;;;;;;-148.56;100.00;61375.16;4960451;28;20030;-25
2022/07/29 10:11:34;;;;;;;12.55;4.50;;;;;;;-148.56;100.00;61375.16;4960827;28;20030;-28
2022/07/29 10:14:01;;;;;;;15.85;4.80;;;;;;;-148.56;100.00;61375.16;4963993;28;20876;-29
2022/07/29 10:16:32;;;;;;;12.05;4.68;;;;;;;-148.56;100.00;61375.16;4965924;28;20247;-28
2022/07/29 10:18:58;;;;;;;13.98;4.50;;;;;;;-148.56;100.00;61375.16;4960032;28;23031;-26
2022/07/29 10:21:24;;;;;;;15.80;4.38;;;;;;;-148.56;100.00;61375.16;4959486;28;20331;-27
2022/07/29 10:23:49;;;;;;;9.85;3.95;;;;;;;-148.56;100.00;61375.16;4958434;28;20748;-25
2022/07/29 10:26:15;;;;;;;11.50;4.35;;;;;;;-148.56;100.00;61375.16;4961747;28;20069;-29
2022/07/29 10:28:40;;;;;;;10.50;4.10;;;;;;;-148.56;100.00;61375.16;4962471;28;20052;-28
2022/07/29 10:31:06;;;;;;;7.93;3.70;;;;;;;-148.56;100.00;61375.16;4959388;28;20129;-24
2022/07/29 10:33:52;;;;;;;10.73;4.20;;;;;;;-148.56;100.00;61375.16;4960661;28;20756;-27
2022/07/29 10:36:48;;;;;;;14.13;4.20;;;;;;;-148.56;100.00;61375.16;4957854;28;20068;-28
2022/07/29 10:39:30;;;;;;;12.50;3.92;;;;;;;-148.56;100.00;61375.16;4963005;28;20014;-26
2022/07/29 10:41:59;;;;;;;8.27;3.88;;;;;;;-148.56;100.00;61375.16;4963556;28;20073;-30
2022/07/29 10:44:25;;;;;;;12.88;3.92;;;;;;;-148.56;100.00;61375.16;4965817;28;20074;-30
2022/07/29 10:46:51;;;;;;;11.77;3.78;;;;;;;-148.56;100.00;61375.16;4964376;28;20088;-26
2022/07/29 10:49:20;;;;;;;9.27;3.47;;;;;;;-148.56;100.00;61375.16;4964942;28;20022;-26
2022/07/29 10:52:07;;;;;;;12.75;3.60;;;;;;;-148.56;100.00;61375.16;4965750;28;20034;-30
2022/07/29 10:54:35;;;;;;;8.93;3.90;;;;;;;-148.56;100.00;61375.16;4964886;28;20026;-29
2022/07/29 10:57:37;;;;;;;8.57;3.47;;;;;;;-148.56;100.00;61375.16;4961584;28;20060;-31
2022/07/29 11:00:03;;;;;;;13.02;4.05;;;;;;;-148.56;100.00;61375.16;4959187;28;20124;-28
2022/07/29 11:02:35;;;;;;;7.97;3.60;;;;;;;-148.56;100.00;61375.16;4954393;28;20042;-24
2022/07/29 11:05:05;;;;;;;8.55;3.28;;;;;;;-148.56;100.00;61375.16;4945737;28;20060;-26
2022/07/29 11:07:33;;;;;;;9.88;3.47;;;;;;;-148.56;100.00;61375.16;4943056;28;20058;-27
2022/07/29 11:10:11;;;;;;;8.85;3.53;;;;;;;-148.56;100.00;61375.16;4952499;28;20641;-30